Time;durP1;ratioP1;P1;durP2;ratioP2;P2;SDS_P1;SDS_P2;PMS_P1;PMS_P2;Temp;Humidity;BMP_temperature;BMP_pressure;BME280_temperature;BME280_humidity;BME280_pressure;Samples;Min_cycle;Max_cycle;Signal;HPM_P1;HPM_P2
2021/11/08 00:01:53;;;;;;;;;;;;;;;5.05;100.00;101922.63;5052461;28;19925;-52
2021/11/08 00:04:20;;;;;;;;;;;;;;;5.02;100.00;101922.72;5052369;28;19975;-49
2021/11/08 00:06:49;;;;;;;;;;;;;;;5.01;100.00;101920.16;5067785;28;20300;-51
2021/11/08 00:09:17;;;;;;;;;;;;;;;5.02;100.00;101924.50;5052310;28;20446;-50
2021/11/08 00:11:44;;;;;;;;;;;;;;;4.93;100.00;101922.94;5052275;28;20016;-52
2021/11/08 00:14:15;;;;;;;;;;;;;;;4.91;100.00;101924.75;5049802;28;19925;-52
2021/11/08 00:21:59;;;;;;;;;;;;;;;4.89;100.00;101932.59;5052183;28;19925;-52
2021/11/08 00:24:27;;;;;;;;;;;;;;;4.96;100.00;101933.28;5052459;28;19924;-52
2021/11/08 00:26:54;;;;;;;;;;;;;;;4.88;100.00;101923.06;5052185;28;19931;-53
2021/11/08 00:29:21;;;;;;;;;;;;;;;4.85;100.00;101927.50;5051735;28;19929;-48
2021/11/08 00:31:48;;;;;;;;;;;;;;;4.85;100.00;101924.88;5047726;28;20288;-51
2021/11/08 00:34:15;;;;;;;;;;;;;;;4.78;100.00;101923.31;5049540;28;20024;-44
2021/11/08 00:36:42;;;;;;;;;;;;;;;4.72;100.00;101929.53;5051999;28;20308;-46
2021/11/08 00:39:09;;;;;;;;;;;;;;;4.65;100.00;101928.81;5067355;28;20340;-46
2021/11/08 00:41:36;;;;;;;;;;;;;;;4.63;100.00;101930.59;5052015;28;19925;-44
2021/11/08 00:44:03;;;;;;;;;;;;;;;4.56;100.00;101936.84;5067487;28;19931;-44
2021/11/08 00:46:30;;;;;;;;;;;;;;;4.56;100.00;101935.09;5051167;28;19971;-45
2021/11/08 00:48:57;;;;;;;;;;;;;;;4.53;100.00;101929.94;5067213;28;19960;-44
2021/11/08 00:51:24;;;;;;;;;;;;;;;4.54;100.00;101936.00;5054826;28;19935;-44
2021/11/08 00:53:52;;;;;;;;;;;;;;;4.50;100.00;101939.56;5053103;28;19924;-45
2021/11/08 00:56:21;;;;;;;;;;;;;;;4.51;100.00;101939.56;5051685;28;19925;-48
2021/11/08 00:58:48;;;;;;;;;;;;;;;4.54;100.00;101942.09;5055126;28;19974;-45
2021/11/08 01:01:22;;;;;;;;;;;;;;;4.46;100.00;101944.00;5037690;28;19929;-44
2021/11/08 01:03:49;;;;;;;;;;;;;;;4.39;100.00;101940.69;5055442;28;19929;-46
2021/11/08 01:06:16;;;;;;;;;;;;;;;4.39;100.00;101953.72;5055625;28;19925;-45
2021/11/08 01:08:43;;;;;;;;;;;;;;;4.33;100.00;101943.41;5052507;28;19925;-47
2021/11/08 01:11:10;;;;;;;;;;;;;;;4.32;100.00;101940.84;5051817;28;20371;-48
2021/11/08 01:13:39;;;;;;;;;;;;;;;4.31;100.00;101944.31;5053804;28;19970;-48
2021/11/08 01:16:06;;;;;;;;;;;;;;;4.23;100.00;101945.34;5050689;28;19951;-48
2021/11/08 01:18:36;;;;;;;;;;;;;;;4.23;100.00;101950.56;5053994;28;19972;-46
2021/11/08 01:21:04;;;;;;;;;;;;;;;4.20;100.00;101944.56;5055153;28;19970;-45
2021/11/08 01:23:32;;;;;;;;;;;;;;;4.18;100.00;101941.13;5054971;28;20342;-46
2021/11/08 01:26:04;;;;;;;;;;;;;;;4.15;100.00;101939.44;5051708;28;19933;-46
2021/11/08 01:28:40;;;;;;;;;;;;;;;4.11;100.00;101939.56;5053189;28;19925;-46
2021/11/08 01:31:08;;;;;;;;;;;;;;;4.10;100.00;101941.28;5054952;28;19970;-46
2021/11/08 01:33:36;;;;;;;;;;;;;;;4.17;100.00;101948.09;5051826;28;19979;-43
2021/11/08 01:38:50;;;;;;;;;;;;;;;4.12;100.00;101957.75;5054800;28;19924;-47
2021/11/08 01:41:18;;;;;;;;;;;;;;;4.11;100.00;101947.38;5054892;28;20380;-46
2021/11/08 01:43:47;;;;;;;;;;;;;;;4.14;100.00;101953.34;5054785;28;19928;-51
2021/11/08 01:46:14;;;;;;;;;;;;;;;4.18;100.00;101969.78;5053368;28;19929;-50
2021/11/08 01:48:41;;;;;;;;;;;;;;;4.14;100.00;101962.91;5070328;28;19931;-50
2021/11/08 01:51:08;;;;;;;;;;;;;;;4.04;100.00;101957.03;5054484;28;19931;-51
2021/11/08 01:53:35;;;;;;;;;;;;;;;4.05;100.00;101954.41;5054637;28;19924;-49
2021/11/08 01:56:02;;;;;;;;;;;;;;;4.06;100.00;101952.66;5054442;28;19925;-52
2021/11/08 01:58:30;;;;;;;;;;;;;;;3.93;100.00;101954.66;5054434;28;19932;-52
2021/11/08 02:00:57;;;;;;;;;;;;;;;3.88;100.00;101948.66;5050415;28;19975;-52
2021/11/08 02:03:24;;;;;;;;;;;;;;;3.91;100.00;101952.97;5051360;28;19935;-49
2021/11/08 02:05:51;;;;;;;;;;;;;;;3.83;100.00;101951.38;5054393;28;20032;-50
2021/11/08 02:08:18;;;;;;;;;;;;;;;3.88;100.00;101957.31;5069240;28;19932;-49
2021/11/08 02:10:46;;;;;;;;;;;;;;;3.81;100.00;101967.91;5054014;28;20024;-48
2021/11/08 02:13:13;;;;;;;;;;;;;;;3.77;100.00;101959.28;5054128;28;19924;-49
2021/11/08 02:15:40;;;;;;;;;;;;;;;3.74;100.00;101956.75;5054137;28;19947;-49
2021/11/08 02:18:08;;;;;;;;;;;;;;;3.72;100.00;101956.78;5054086;28;19925;-48
2021/11/08 02:20:37;;;;;;;;;;;;;;;3.70;100.00;101947.28;5054412;28;20377;-50
2021/11/08 02:23:05;;;;;;;;;;;;;;;3.69;100.00;101948.16;5054014;28;20403;-48
2021/11/08 02:25:37;;;;;;;;;;;;;;;3.66;100.00;101948.22;5053880;28;19924;-50
2021/11/08 02:28:06;;;;;;;;;;;;;;;3.62;100.00;101949.16;5065025;28;19929;-52
2021/11/08 02:30:36;;;;;;;;;;;;;;;3.63;100.00;101946.53;5051439;28;19958;-51
2021/11/08 02:33:03;;;;;;;;;;;;;;;3.63;100.00;101951.75;5051276;28;19935;-44
2021/11/08 02:35:30;;;;;;;;;;;;;;;3.67;100.00;101960.34;5050825;28;19925;-46
2021/11/08 02:37:59;;;;;;;;;;;;;;;3.65;100.00;101954.31;5052664;28;20360;-43
2021/11/08 02:40:28;;;;;;;;;;;;;;;3.65;100.00;101962.13;5069060;28;20350;-49
2021/11/08 02:42:58;;;;;;;;;;;;;;;3.64;100.00;101963.00;5051844;28;19925;-45
2021/11/08 02:45:26;;;;;;;;;;;;;;;3.59;100.00;101954.44;5050888;28;19932;-44
2021/11/08 02:47:54;;;;;;;;;;;;;;;3.55;100.00;101958.81;5050669;28;19925;-45
2021/11/08 02:50:22;;;;;;;;;;;;;;;3.52;100.00;101954.53;5053431;28;19928;-45
2021/11/08 02:52:51;;;;;;;;;;;;;;;3.53;100.00;101958.84;5049540;28;19925;-48
2021/11/08 02:55:19;;;;;;;;;;;;;;;3.52;100.00;101957.13;5033053;28;19924;-45
2021/11/08 02:57:50;;;;;;;;;;;;;;;3.52;100.00;101954.53;5053475;28;19924;-47
2021/11/08 03:00:18;;;;;;;;;;;;;;;3.50;100.00;101951.09;5053347;28;20291;-47
2021/11/08 03:02:46;;;;;;;;;;;;;;;3.50;100.00;101952.84;5050259;28;19925;-45
2021/11/08 03:05:15;;;;;;;;;;;;;;;3.51;100.00;101958.00;5050162;28;19940;-44
2021/11/08 03:07:42;;;;;;;;;;;;;;;3.51;100.00;101957.16;5051835;28;19974;-47
2021/11/08 03:10:11;;;;;;;;;;;;;;;3.55;100.00;101958.81;5053048;28;20248;-46
2021/11/08 03:12:39;;;;;;;;;;;;;;;3.61;100.00;101952.66;5049844;28;19931;-44
2021/11/08 03:15:12;;;;;;;;;;;;;;;3.53;100.00;101961.47;5049684;28;19936;-47
2021/11/08 03:17:42;;;;;;;;;;;;;;;3.60;100.00;101964.81;5052282;28;19960;-43
2021/11/08 03:20:11;;;;;;;;;;;;;;;3.55;100.00;101964.03;5053042;28;19963;-45
2021/11/08 03:22:39;;;;;;;;;;;;;;;3.50;100.00;101971.06;5052865;28;19924;-44
2021/11/08 03:25:17;;;;;;;;;;;;;;;3.53;100.00;101971.88;5066769;28;19929;-45
2021/11/08 03:27:52;;;;;;;;;;;;;;;3.45;100.00;101973.75;5049945;28;19928;-48
2021/11/08 03:30:24;;;;;;;;;;;;;;;3.43;100.00;101970.28;5052111;28;20346;-46
2021/11/08 03:32:51;;;;;;;;;;;;;;;3.37;100.00;101967.81;5051601;28;19982;-45
2021/11/08 03:35:22;;;;;;;;;;;;;;;3.37;100.00;101970.41;5051876;28;19931;-49
2021/11/08 03:37:50;;;;;;;;;;;;;;;3.35;100.00;101970.44;5049717;28;19924;-44
2021/11/08 03:40:22;;;;;;;;;;;;;;;3.35;100.00;101972.16;5066872;28;20028;-43
2021/11/08 03:42:51;;;;;;;;;;;;;;;3.33;100.00;101968.75;5049466;28;19925;-45
2021/11/08 03:45:18;;;;;;;;;;;;;;;3.32;100.00;101977.44;5048102;28;19975;-46
2021/11/08 03:47:45;;;;;;;;;;;;;;;3.35;100.00;101983.44;5050988;28;19925;-49
2021/11/08 03:50:12;;;;;;;;;;;;;;;3.43;100.00;101985.06;5052239;28;19932;-53
2021/11/08 03:52:39;;;;;;;;;;;;;;;3.46;100.00;101996.25;5052629;28;20303;-51
2021/11/08 03:55:10;;;;;;;;;;;;;;;3.41;100.00;101998.09;5052514;28;19960;-48
2021/11/08 03:57:37;;;;;;;;;;;;;;;3.40;100.00;101990.31;5049719;28;19925;-51
2021/11/08 04:00:04;;;;;;;;;;;;;;;3.47;100.00;102000.56;5049814;28;19925;-51
2021/11/08 04:02:31;;;;;;;;;;;;;;;3.36;100.00;102005.94;5051623;28;20379;-48
2021/11/08 04:05:01;;;;;;;;;;;;;;;3.31;100.00;102001.72;5051316;28;19924;-53
2021/11/08 04:07:28;;;;;;;;;;;;;;;3.29;100.00;102003.50;5052385;28;19924;-44
2021/11/08 04:09:55;;;;;;;;;;;;;;;3.30;100.00;102010.38;5068029;28;19925;-45
2021/11/08 04:12:23;;;;;;;;;;;;;;;3.23;100.00;102004.41;5064663;28;20388;-44
2021/11/08 04:14:51;;;;;;;;;;;;;;;3.22;100.00;101997.53;5048271;28;20439;-46
2021/11/08 04:17:20;;;;;;;;;;;;;;;3.21;100.00;102006.22;5052301;28;19928;-47
2021/11/08 04:19:47;;;;;;;;;;;;;;;3.19;100.00;102013.16;5050673;28;19929;-47
2021/11/08 04:22:14;;;;;;;;;;;;;;;3.17;100.00;102017.53;5048811;28;19924;-46
2021/11/08 04:24:42;;;;;;;;;;;;;;;3.16;100.00;102013.22;5053266;28;20353;-47
2021/11/08 04:27:09;;;;;;;;;;;;;;;3.15;100.00;102021.88;5071421;28;20413;-44
2021/11/08 04:29:37;;;;;;;;;;;;;;;3.16;100.00;102016.69;5054960;28;20027;-44
2021/11/08 04:32:04;;;;;;;;;;;;;;;3.13;100.00;102015.88;5067087;28;19960;-47
2021/11/08 04:42:33;;;;;;;;;;;;;;;3.09;100.00;102012.44;5054352;28;19925;-45
2021/11/08 05:22:58;;;;;;;;;;;;;;;3.03;100.00;102022.94;5053965;28;19948;-43
2021/11/08 05:30:31;;;;;;;;;;;;;;;3.12;100.00;102037.53;5054952;28;19932;-46
2021/11/08 05:32:58;;;;;;;;;;;;;;;3.17;100.00;102051.34;5053972;28;19967;-49
2021/11/08 05:35:25;;;;;;;;;;;;;;;3.17;100.00;102057.38;5054392;28;19925;-49
2021/11/08 05:37:52;;;;;;;;;;;;;;;3.19;100.00;102047.84;5054607;28;20396;-50
2021/11/08 05:40:31;;;;;;;;;;;;;;;3.21;100.00;102043.44;5052638;28;19955;-49
2021/11/08 05:43:00;;;;;;;;;;;;;;;3.27;100.00;102045.09;5051386;28;20036;-50
2021/11/08 05:45:32;;;;;;;;;;;;;;;3.28;100.00;102048.56;5053865;28;19929;-51
2021/11/08 05:47:59;;;;;;;;;;;;;;;3.27;100.00;102057.25;5053531;28;19924;-51
2021/11/08 05:50:25;;;;;;;;;;;;;;;3.27;100.00;102047.69;5051601;28;19932;-49
2021/11/08 05:52:54;;;;;;;;;;;;;;;3.28;100.00;102052.03;5052143;28;20415;-50
2021/11/08 05:55:26;;;;;;;;;;;;;;;3.35;100.00;102045.00;5053346;28;19932;-51
2021/11/08 05:58:06;;;;;;;;;;;;;;;3.35;100.00;102063.19;5052451;28;19929;-51
2021/11/08 06:50:16;;;;;;;;;;;;;;;3.53;100.00;102081.13;5045620;28;19951;-50
2021/11/08 06:52:50;;;;;;;;;;;;;;;3.58;100.00;102085.41;5040331;28;19925;-48
2021/11/08 06:55:18;;;;;;;;;;;;;;;3.61;100.00;102090.53;5046180;28;19932;-53
2021/11/08 06:57:46;;;;;;;;;;;;;;;3.64;100.00;102086.16;5030028;28;19929;-52
2021/11/08 07:00:14;;;;;;;;;;;;;;;3.66;100.00;102093.94;5031742;28;19925;-51
2021/11/08 07:02:41;;;;;;;;;;;;;;;3.70;100.00;102093.00;5033758;28;19925;-52
2021/11/08 07:05:08;;;;;;;;;;;;;;;3.71;100.00;102094.72;5032257;28;20364;-52
2021/11/08 07:07:35;;;;;;;;;;;;;;;3.72;100.00;102092.09;5030090;28;19929;-51
2021/11/08 07:10:02;;;;;;;;;;;;;;;3.73;100.00;102101.59;5031113;28;19925;-53
2021/11/08 07:12:29;;;;;;;;;;;;;;;3.76;100.00;102100.69;5032145;28;19925;-52
2021/11/08 07:14:56;;;;;;;;;;;;;;;3.79;100.00;102107.59;5033049;28;19925;-51
2021/11/08 07:17:22;;;;;;;;;;;;;;;3.81;100.00;102121.44;5032778;28;19969;-49
2021/11/08 07:19:49;;;;;;;;;;;;;;;3.85;100.00;102113.56;5032507;28;19968;-51
2021/11/08 07:22:16;;;;;;;;;;;;;;;3.88;100.00;102113.50;5045185;28;20295;-49
2021/11/08 07:24:43;;;;;;;;;;;;;;;3.93;100.00;102117.75;5030589;28;19929;-45
2021/11/08 07:27:10;;;;;;;;;;;;;;;3.98;100.00;102118.56;5048186;28;20348;-45
2021/11/08 07:29:38;;;;;;;;;;;;;;;4.06;100.00;102117.56;5032749;28;19932;-42
2021/11/08 07:32:05;;;;;;;;;;;;;;;4.14;100.00;102125.19;5047764;28;19931;-42
2021/11/08 07:34:32;;;;;;;;;;;;;;;4.17;100.00;102122.56;5031331;28;19926;-44
2021/11/08 07:36:59;;;;;;;;;;;;;;;4.21;100.00;102126.84;5047735;28;19925;-52
2021/11/08 07:39:27;;;;;;;;;;;;;;;4.27;100.00;102136.28;5015313;28;20392;-50
2021/11/08 07:41:54;;;;;;;;;;;;;;;4.34;100.00;102145.69;5032877;28;19925;-48
2021/11/08 07:44:21;;;;;;;;;;;;;;;4.39;100.00;102143.88;5033051;28;20430;-50
2021/11/08 07:46:47;;;;;;;;;;;;;;;4.50;100.00;102148.00;5048144;28;20296;-42
2021/11/08 07:49:14;;;;;;;;;;;;;;;4.53;100.00;102145.34;5032577;28;19933;-43
2021/11/08 07:51:41;;;;;;;;;;;;;;;4.60;100.00;102148.72;5047948;28;19925;-46
2021/11/08 07:54:08;;;;;;;;;;;;;;;4.65;100.00;102159.88;5032983;28;20431;-49
2021/11/08 07:56:35;;;;;;;;;;;;;;;4.70;100.00;102164.13;5028945;28;20356;-44
2021/11/08 07:59:02;;;;;;;;;;;;;;;4.76;100.00;102173.59;5030725;28;19929;-44
2021/11/08 08:01:29;;;;;;;;;;;;;;;4.81;100.00;102169.13;5035763;28;20435;-51
2021/11/08 08:03:56;;;;;;;;;;;;;;;4.86;100.00;102176.88;5036105;28;19932;-50
2021/11/08 08:06:23;;;;;;;;;;;;;;;4.91;100.00;102175.03;5033988;28;19925;-51
2021/11/08 08:08:51;;;;;;;;;;;;;;;4.95;100.00;102166.25;5035275;28;20340;-51
2021/11/08 08:11:18;;;;;;;;;;;;;;;5.01;100.00;102162.66;5036456;28;19987;-49
2021/11/08 08:13:45;;;;;;;;;;;;;;;5.10;100.00;102162.47;5036383;28;19926;-47
2021/11/08 08:16:14;;;;;;;;;;;;;;;5.13;100.00;102170.22;5036302;28;19956;-49
2021/11/08 08:18:43;;;;;;;;;;;;;;;5.17;100.00;102163.19;5050103;28;20016;-48
2021/11/08 08:21:10;;;;;;;;;;;;;;;5.24;100.00;102173.44;5032175;28;19929;-50
2021/11/08 08:23:54;;;;;;;;;;;;;;;5.28;100.00;102176.88;5035537;28;20384;-50
2021/11/08 08:26:25;;;;;;;;;;;;;;;5.34;100.00;102178.47;5036298;28;20363;-49
2021/11/08 08:28:52;;;;;;;;;;;;;;;5.40;100.00;102178.34;5035267;28;19925;-54
2021/11/08 08:31:19;;;;;;;;;;;;;;;5.50;100.00;102179.84;5030870;28;20422;-53
2021/11/08 08:33:46;;;;;;;;;;;;;;;5.53;100.00;102177.16;5048759;28;19925;-45
2021/11/08 08:36:13;;;;;;;;;;;;;;;5.57;100.00;102181.41;5035372;28;19929;-44
2021/11/08 08:38:41;;;;;;;;;;;;;;;5.62;100.00;102193.50;5035813;28;20311;-45
2021/11/08 08:41:07;;;;;;;;;;;;;;;5.66;100.00;102202.97;5035245;28;19929;-45
2021/11/08 08:43:34;;;;;;;;;;;;;;;5.72;100.00;102205.47;5032123;28;19944;-49
2021/11/08 08:46:01;;;;;;;;;;;;;;;5.75;100.00;102208.00;5034034;28;19925;-51
2021/11/08 08:48:30;;;;;;;;;;;;;;;5.81;100.00;102205.25;5035984;28;19925;-54
2021/11/08 08:50:57;;;;;;;;;;;;;;;5.89;100.00;102205.06;5032834;28;19925;-53
2021/11/08 08:53:24;;;;;;;;;;;;;;;5.97;100.00;102210.97;5047644;28;20310;-49
2021/11/08 08:55:55;;;;;;;;;;;;;;;6.07;100.00;102214.25;5034737;28;20016;-50
2021/11/08 08:58:22;;;;;;;;;;;;;;;6.14;100.00;102222.81;5034244;28;20012;-50
2021/11/08 09:00:49;;;;;;;;;;;;;;;6.19;100.00;102211.34;5031951;28;20404;-51
2021/11/08 09:03:16;;;;;;;;;;;;;;;6.25;100.00;102212.94;5031344;28;19925;-51
2021/11/08 09:05:44;;;;;;;;;;;;;;;6.32;100.00;102221.47;5034316;28;19929;-48
2021/11/08 09:08:11;;;;;;;;;;;;;;;6.36;100.00;102218.75;5035527;28;19929;-52
2021/11/08 09:10:38;;;;;;;;;;;;;;;6.42;100.00;102223.81;5033234;28;19975;-49
2021/11/08 09:13:06;;;;;;;;;;;;;;;6.49;100.00;102221.91;5035429;28;19925;-49
2021/11/08 09:15:34;;;;;;;;;;;;;;;6.55;100.00;102226.13;5035642;28;20303;-51
2021/11/08 09:18:01;;;;;;;;;;;;;;;6.62;100.00;102229.44;5035423;28;19933;-51
2021/11/08 09:20:28;;;;;;;;;;;;;;;6.68;100.00;102227.50;5050329;28;19933;-51
2021/11/08 09:22:55;;;;;;;;;;;;;;;6.73;100.00;102224.75;5017112;28;19929;-49
2021/11/08 09:25:23;;;;;;;;;;;;;;;6.80;100.00;102223.69;5031477;28;19952;-49
2021/11/08 09:27:51;;;;;;;;;;;;;;;6.91;100.00;102216.44;5032068;28;19935;-53
2021/11/08 09:30:19;;;;;;;;;;;;;;;7.05;100.00;102225.66;5035006;28;19925;-45
2021/11/08 09:32:46;;;;;;;;;;;;;;;7.20;100.00;102219.97;5035065;28;20299;-45
2021/11/08 09:35:14;;;;;;;;;;;;;;;7.38;100.00;102215.94;5031241;28;20357;-43
2021/11/08 09:37:44;;;;;;;;;;;;;;;7.40;100.00;102211.53;5046588;28;19925;-52
2021/11/08 09:40:12;;;;;;;;;;;;;;;7.45;100.00;102214.84;5035107;28;19947;-52
2021/11/08 09:42:39;;;;;;;;;;;;;;;7.53;100.00;102216.41;5035276;28;20458;-54
2021/11/08 09:45:06;;;;;;;;;;;;;;;7.56;100.00;102214.53;5032573;28;20312;-52
2021/11/08 09:47:34;;;;;;;;;;;;;;;7.64;100.00;102210.84;5029797;28;19925;-54
2021/11/08 09:50:03;;;;;;;;;;;;;;;7.70;100.00;102213.25;5033851;28;19935;-53
2021/11/08 09:52:31;;;;;;;;;;;;;;;7.74;100.00;102222.72;5046342;28;20019;-51
2021/11/08 09:54:58;;;;;;;;;;;;;;;7.79;100.00;102223.44;5031966;28;19925;-54
2021/11/08 09:57:26;;;;;;;;;;;;;;;7.84;100.00;102216.31;5033510;28;19929;-50
2021/11/08 09:59:53;;;;;;;;;;;;;;;7.90;100.00;102212.63;5034471;28;19925;-52
2021/11/08 10:02:30;;;;;;;;;;;;;;;7.91;100.00;102225.66;5033500;28;19936;-51
2021/11/08 10:04:57;;;;;;;;;;;;;;;7.95;100.00;102222.03;5049920;28;19967;-50
2021/11/08 10:07:28;;;;;;;;;;;;;;;7.98;100.00;102228.94;5034468;28;19929;-50
2021/11/08 10:09:55;;;;;;;;;;;;;;;8.02;100.00;102216.63;5034298;28;20388;-52
2021/11/08 10:12:21;;;;;;;;;;;;;;;8.07;100.00;102225.16;5034269;28;19925;-52
2021/11/08 10:14:48;;;;;;;;;;;;;;;8.11;100.00;102227.66;5033008;28;19968;-54
2021/11/08 10:17:15;;;;;;;;;;;;;;;8.17;100.00;102229.22;5034436;28;19925;-54
2021/11/08 10:19:42;;;;;;;;;;;;;;;8.25;100.00;102219.31;5034155;28;19979;-50
2021/11/08 10:22:10;;;;;;;;;;;;;;;8.32;100.00;102224.34;5033769;28;19937;-52
2021/11/08 10:24:38;;;;;;;;;;;;;;;8.42;100.00;102226.59;5034296;28;20000;-52
2021/11/08 10:27:06;;;;;;;;;;;;;;;8.50;100.00;102228.16;5034241;28;20289;-52
2021/11/08 10:29:33;;;;;;;;;;;;;;;8.60;100.00;102224.31;5029326;28;19925;-49
2021/11/08 10:32:07;;;;;;;;;;;;;;;8.72;100.00;102228.28;5029833;28;19932;-52
2021/11/08 10:34:34;;;;;;;;;;;;;;;8.76;100.00;102235.13;5032569;28;19925;-52
2021/11/08 10:37:01;;;;;;;;;;;;;;;8.81;100.00;102220.06;5029734;28;20276;-54
2021/11/08 10:39:30;;;;;;;;;;;;;;;8.89;100.00;102211.91;5032691;28;19925;-53
2021/11/08 10:41:57;;;;;;;;;;;;;;;9.00;100.00;102214.16;5032253;28;20299;-53
2021/11/08 10:44:24;;;;;;;;;;;;;;;9.06;100.00;102211.31;5032211;28;20031;-48
2021/11/08 10:46:57;;;;;;;;;;;;;;;9.17;100.00;102216.16;5032431;28;20360;-48
2021/11/08 10:49:25;;;;;;;;;;;;;;;9.28;100.00;102217.47;5033207;28;19975;-46
2021/11/08 10:51:57;;;;;;;;;;;;;;;9.34;100.00;102211.13;5030781;28;19925;-50
2021/11/08 10:54:26;;;;;;;;;;;;;;;9.44;100.00;102219.50;5030125;28;19951;-48
2021/11/08 10:56:55;;;;;;;;;;;;;;;9.58;100.00;102217.19;5033184;28;19971;-45
2021/11/08 10:59:23;;;;;;;;;;;;;;;9.68;100.00;102211.56;5048651;28;19925;-48
2021/11/08 11:01:52;;;;;;;;;;;;;;;9.72;100.00;102218.41;5032091;28;20381;-43
2021/11/08 11:04:28;;;;;;;;;;;;;;;9.81;100.00;102205.78;5033365;28;19979;-43
2021/11/08 11:06:55;;;;;;;;;;;;;;;9.85;100.00;102211.75;5029878;28;19925;-48
2021/11/08 11:09:27;;;;;;;;;;;;;;;9.94;100.00;102211.41;5030019;28;19936;-44
2021/11/08 11:12:26;;;;;;;;;;;;;;;10.00;100.00;102209.44;5033178;28;19932;-47
2021/11/08 11:14:57;;;;;;;;;;;;;;;10.03;100.00;102214.56;5031835;28;19971;-55
2021/11/08 11:17:28;;;;;;;;;;;;;;;10.05;99.95;102216.22;5032586;28;19979;-54
2021/11/08 11:20:05;;;;;;;;;;;;;;;10.14;99.00;102218.47;5028766;28;19933;-53
2021/11/08 11:22:33;;;;;;;;;;;;;;;10.15;99.69;102220.16;5030634;28;19948;-56
2021/11/08 11:25:02;;;;;;;;;;;;;;;10.20;100.00;102222.63;5032883;28;20457;-53
2021/11/08 11:27:34;;;;;;;;;;;;;;;10.14;98.91;102213.22;5048145;28;20281;-56
2021/11/08 11:30:13;;;;;;;;;;;;;;;10.18;99.17;102211.28;5032999;28;19925;-55
2021/11/08 11:32:40;;;;;;;;;;;;;;;10.34;97.29;102210.66;5031002;28;19932;-53
2021/11/08 11:35:11;;;;;;;;;;;;;;;10.37;98.41;102211.41;5028075;28;20734;-53
2021/11/08 11:37:38;;;;;;;;;;;;;;;10.45;97.17;102214.56;5029623;28;19933;-55
2021/11/08 11:40:08;;;;;;;;;;;;;;;10.48;97.36;102214.47;5032607;28;20023;-52
2021/11/08 11:42:47;;;;;;;;;;;;;;;10.49;97.70;102207.41;5032410;28;19925;-54
2021/11/08 11:45:14;;;;;;;;;;;;;;;10.50;98.22;102214.38;5028450;28;20449;-51
2021/11/08 11:47:41;;;;;;;;;;;;;;;10.56;96.45;102211.47;5028243;28;19925;-52
2021/11/08 11:50:08;;;;;;;;;;;;;;;10.58;95.17;102222.78;5031280;28;19940;-55
2021/11/08 11:52:41;;;;;;;;;;;;;;;10.60;96.04;102226.19;5044533;28;19960;-54
2021/11/08 11:55:09;;;;;;;;;;;;;;;10.64;94.52;102237.47;5044154;28;19956;-55
2021/11/08 11:57:35;;;;;;;;;;;;;;;10.75;95.64;102231.72;5032764;28;19966;-55
2021/11/08 12:00:04;;;;;;;;;;;;;;;10.79;94.22;102225.41;5032583;28;19925;-57
2021/11/08 12:02:30;;;;;;;;;;;;;;;10.87;95.20;102230.34;5032605;28;19925;-56
2021/11/08 12:04:57;;;;;;;;;;;;;;;10.96;93.79;102222.00;5047795;28;20340;-56
2021/11/08 12:07:24;;;;;;;;;;;;;;;11.04;92.90;102219.03;5027530;28;19936;-53
2021/11/08 12:09:51;;;;;;;;;;;;;;;11.13;92.57;102224.75;5043668;28;20004;-53
2021/11/08 12:12:25;;;;;;;;;;;;;;;11.24;93.23;102219.00;5031913;28;19925;-56
2021/11/08 12:14:56;;;;;;;;;;;;;;;11.36;87.86;102224.59;5032400;28;19932;-55
2021/11/08 12:17:23;;;;;;;;;;;;;;;11.50;89.74;102216.91;5047524;28;19925;-55
2021/11/08 12:19:51;;;;;;;;;;;;;;;11.58;90.15;102217.41;5027192;28;20453;-55
2021/11/08 12:22:26;;;;;;;;;;;;;;;11.64;87.57;102206.59;5029158;28;19925;-56
2021/11/08 12:25:00;;;;;;;;;;;;;;;11.60;86.98;102206.78;5030542;28;19925;-56
2021/11/08 12:27:35;;;;;;;;;;;;;;;11.72;87.89;102208.84;5028629;28;19936;-55
2021/11/08 12:30:07;;;;;;;;;;;;;;;11.69;86.37;102195.81;5031477;28;19925;-55
2021/11/08 12:32:48;;;;;;;;;;;;;;;11.76;87.31;102201.66;5031247;28;20381;-56
2021/11/08 12:35:16;;;;;;;;;;;;;;;11.83;88.18;102197.78;5032238;28;19933;-57
2021/11/08 12:37:46;;;;;;;;;;;;;;;11.89;86.91;102205.41;5032389;28;19925;-56
2021/11/08 12:40:13;;;;;;;;;;;;;;;11.95;87.32;102196.34;5032205;28;19971;-54
2021/11/08 12:42:43;;;;;;;;;;;;;;;12.02;87.51;102202.19;5047605;28;20400;-54
2021/11/08 12:45:14;;;;;;;;;;;;;;;12.08;87.42;102201.84;5032743;28;19996;-53
2021/11/08 12:47:59;;;;;;;;;;;;;;;12.11;86.84;102192.03;5034710;28;19932;-46
2021/11/08 12:50:43;;;;;;;;;;;;;;;12.21;87.21;102192.41;5033156;28;19983;-46
2021/11/08 12:53:26;;;;;;;;;;;;;;;12.29;84.61;102192.88;5013830;28;20419;-46
2021/11/08 12:55:58;;;;;;;;;;;;;;;12.26;83.67;102189.56;5034717;28;19933;-44
2021/11/08 12:58:36;;;;;;;;;;;;;;;12.24;84.51;102180.84;5031735;28;20419;-48
2021/11/08 13:01:04;;;;;;;;;;;;;;;12.32;84.58;102179.53;5032694;28;19925;-47
2021/11/08 13:03:35;;;;;;;;;;;;;;;12.26;84.58;102173.72;5050400;28;19925;-50
2021/11/08 13:06:04;;;;;;;;;;;;;;;12.18;85.55;102171.47;5035483;28;19972;-48
2021/11/08 13:08:33;;;;;;;;;;;;;;;12.26;85.36;102165.81;5035344;28;19926;-49
2021/11/08 13:11:11;;;;;;;;;;;;;;;12.11;85.01;102165.66;5035278;28;19936;-47
2021/11/08 13:13:39;;;;;;;;;;;;;;;12.18;85.75;102167.03;5035459;28;19953;-50
2021/11/08 13:16:13;;;;;;;;;;;;;;;12.15;85.22;102156.66;5030555;28;19929;-51
2021/11/08 13:18:41;;;;;;;;;;;;;;;12.15;84.91;102166.38;5031281;28;19932;-52
2021/11/08 13:21:09;;;;;;;;;;;;;;;12.16;84.35;102165.41;5035115;28;20031;-50
2021/11/08 13:23:39;;;;;;;;;;;;;;;12.28;83.91;102159.50;5034949;28;20032;-57
2021/11/08 13:26:06;;;;;;;;;;;;;;;12.22;84.59;102173.03;5050427;28;20392;-56
2021/11/08 13:28:35;;;;;;;;;;;;;;;12.03;84.59;102170.47;5034745;28;19925;-56
2021/11/08 13:31:11;;;;;;;;;;;;;;;12.14;84.72;102170.75;5034681;28;19925;-57
2021/11/08 13:33:39;;;;;;;;;;;;;;;12.04;84.95;102168.66;5034791;28;19947;-56
2021/11/08 13:36:06;;;;;;;;;;;;;;;12.00;84.58;102168.81;5032832;28;20019;-55
2021/11/08 13:38:34;;;;;;;;;;;;;;;11.97;85.57;102176.91;5031073;28;19925;-57
2021/11/08 13:41:06;;;;;;;;;;;;;;;11.94;85.58;102184.97;5033737;28;19929;-53
2021/11/08 13:43:39;;;;;;;;;;;;;;;11.89;85.39;102180.78;5033568;28;19925;-46
2021/11/08 13:46:07;;;;;;;;;;;;;;;11.92;85.68;102178.88;5034731;28;20455;-48
2021/11/08 13:48:36;;;;;;;;;;;;;;;11.89;85.17;102176.41;5032341;28;19975;-44
2021/11/08 13:51:04;;;;;;;;;;;;;;;11.94;85.41;102181.44;5030554;28;20035;-44
2021/11/08 13:53:32;;;;;;;;;;;;;;;11.94;84.62;102190.25;5034060;28;19925;-48
2021/11/08 13:56:00;;;;;;;;;;;;;;;11.90;84.86;102193.06;5032178;28;20408;-49
2021/11/08 13:58:30;;;;;;;;;;;;;;;11.91;85.58;102206.16;5012963;28;20028;-47
2021/11/08 14:01:07;;;;;;;;;;;;;;;11.91;85.94;102203.53;5032201;28;19929;-46
2021/11/08 14:03:41;;;;;;;;;;;;;;;11.89;85.60;102201.88;5033529;28;20389;-45
2021/11/08 14:06:09;;;;;;;;;;;;;;;11.89;85.38;102199.25;5033742;28;19925;-45
2021/11/08 14:08:37;;;;;;;;;;;;;;;11.89;86.02;102202.75;5034458;28;19925;-55
2021/11/08 14:11:04;;;;;;;;;;;;;;;11.88;85.67;102195.78;5034201;28;19964;-57
2021/11/08 14:13:37;;;;;;;;;;;;;;;11.82;85.96;102202.19;5033121;28;19931;-56
2021/11/08 14:16:06;;;;;;;;;;;;;;;11.83;85.25;102209.19;5034166;28;20357;-57
2021/11/08 14:18:33;;;;;;;;;;;;;;;11.82;86.32;102209.22;5033658;28;19925;-56
2021/11/08 14:21:08;;;;;;;;;;;;;;;11.86;86.40;102207.31;5028635;28;20347;-56
2021/11/08 14:23:35;;;;;;;;;;;;;;;11.75;86.00;102203.44;5031473;28;19929;-55
2021/11/08 14:26:12;;;;;;;;;;;;;;;11.77;86.85;102212.09;5033987;28;20403;-56
2021/11/08 14:28:39;;;;;;;;;;;;;;;11.79;86.55;102207.63;5034132;28;19925;-55
2021/11/08 14:31:36;;;;;;;;;;;;;;;11.76;87.44;102202.47;5048974;28;19933;-56
2021/11/08 14:34:09;;;;;;;;;;;;;;;11.77;87.58;102208.63;5033312;28;19929;-53